Manzanita, California
Current Conditions -  °F | °C
As of 12:53 PM on Tuesday 25 Nov 2014 (Local Time) from KOVE Reporting Station
Clear Clear  
Wind Chill: 60°   Ceiling: Unl
Heat Index: 60°   Visibility: 10mi
Dew Point: 44°   Wind: 5mph
Humidity: 55%   Direction: 280°W
Pressure: 30.44"   Gusts: NA
Location:  39.3475°N, 121.759°W
Report Text: KOVE 252053Z AUTO 28004KT 10SM CLR 16/07 A3044 RMK AO2 SLP310 T01560067 58023
Loading
Personal Weather Stations






























Interactive Weather Map New forecast layout! Learn more

10-Day Weather Forecast

Advertisements
Track Severe Weather on mobile